Time;durP1;ratioP1;P1;durP2;ratioP2;P2;SDS_P1;SDS_P2;PMS_P1;PMS_P2;Temp;Humidity;BMP_temperature;BMP_pressure;BME280_temperature;BME280_humidity;BME280_pressure;Samples;Min_cycle;Max_cycle;Signal;HPM_P1;HPM_P2
2022/01/07 00:01:35;;;;;;;16.33;12.47;;;;;;;;;;5011978;28;20018;-65
2022/01/07 00:04:01;;;;;;;18.53;12.50;;;;;;;;;;5008314;28;20037;-65
2022/01/07 00:06:27;;;;;;;16.73;12.70;;;;;;;;;;4996562;28;20026;-65
2022/01/07 00:08:53;;;;;;;17.97;13.50;;;;;;;;;;5010816;28;20037;-65
2022/01/07 00:11:20;;;;;;;18.57;14.73;;;;;;;;;;5016847;28;20026;-65
2022/01/07 00:13:46;;;;;;;19.53;15.03;;;;;;;;;;5014968;28;20058;-65
2022/01/07 00:16:12;;;;;;;21.90;15.60;;;;;;;;;;5016265;28;20032;-64
2022/01/07 00:18:41;;;;;;;24.17;15.83;;;;;;;;;;5014727;28;20080;-64
2022/01/07 00:21:07;;;;;;;21.73;16.70;;;;;;;;;;5014238;28;20026;-64
2022/01/07 00:23:33;;;;;;;21.90;16.47;;;;;;;;;;4997021;28;20034;-64
2022/01/07 00:25:59;;;;;;;21.27;16.70;;;;;;;;;;5015081;28;20030;-64
2022/01/07 00:28:25;;;;;;;21.67;16.80;;;;;;;;;;5015171;28;20471;-64
2022/01/07 00:30:51;;;;;;;23.47;17.40;;;;;;;;;;5015626;28;20117;-65
2022/01/07 00:33:18;;;;;;;26.57;18.67;;;;;;;;;;5014845;28;20030;-65
2022/01/07 00:35:45;;;;;;;23.73;17.73;;;;;;;;;;5017749;28;20433;-65
2022/01/07 00:38:11;;;;;;;26.90;18.60;;;;;;;;;;4998549;28;20060;-65
2022/01/07 00:40:37;;;;;;;24.63;18.47;;;;;;;;;;5015546;28;20484;-65
2022/01/07 00:43:03;;;;;;;23.80;18.70;;;;;;;;;;5014440;28;20483;-65
2022/01/07 00:45:29;;;;;;;22.07;18.27;;;;;;;;;;5015441;28;20018;-65
2022/01/07 00:47:55;;;;;;;28.17;19.20;;;;;;;;;;5012929;28;20057;-65
2022/01/07 00:50:21;;;;;;;25.57;18.73;;;;;;;;;;5033846;28;20038;-65
2022/01/07 00:52:48;;;;;;;21.20;16.87;;;;;;;;;;5027822;28;20038;-65
2022/01/07 00:55:14;;;;;;;24.20;18.77;;;;;;;;;;5016044;28;20117;-65
2022/01/07 00:57:40;;;;;;;24.63;18.07;;;;;;;;;;5014644;28;20443;-65
2022/01/07 01:00:08;;;;;;;23.07;17.07;;;;;;;;;;5015033;28;20026;-65
2022/01/07 01:02:34;;;;;;;23.83;16.73;;;;;;;;;;5014471;28;20523;-65
2022/01/07 01:05:00;;;;;;;26.67;18.83;;;;;;;;;;4995607;28;20384;-65
2022/01/07 01:07:27;;;;;;;25.23;18.00;;;;;;;;;;4997392;28;20392;-65
2022/01/07 01:09:53;;;;;;;22.57;17.50;;;;;;;;;;5013941;28;20025;-65
2022/01/07 01:12:19;;;;;;;26.77;17.47;;;;;;;;;;5015351;28;20026;-64
2022/01/07 01:14:46;;;;;;;22.33;16.30;;;;;;;;;;5015525;28;20046;-65
2022/01/07 01:17:13;;;;;;;26.63;16.83;;;;;;;;;;5013923;28;20030;-65
2022/01/07 01:19:38;;;;;;;24.47;17.17;;;;;;;;;;5014183;28;20098;-65
2022/01/07 01:22:05;;;;;;;23.40;16.57;;;;;;;;;;5014558;28;20385;-65
2022/01/07 01:24:31;;;;;;;19.73;15.73;;;;;;;;;;5016597;28;20075;-65
2022/01/07 01:26:57;;;;;;;20.53;16.10;;;;;;;;;;5024030;28;20030;-65
2022/01/07 01:29:23;;;;;;;22.77;16.73;;;;;;;;;;5014247;28;20030;-65
2022/01/07 01:31:49;;;;;;;21.80;16.70;;;;;;;;;;5009838;28;20022;-65
2022/01/07 01:34:16;;;;;;;21.40;15.87;;;;;;;;;;5013921;28;20041;-65
2022/01/07 01:36:42;;;;;;;20.67;16.37;;;;;;;;;;5014407;28;20064;-65
2022/01/07 01:39:10;;;;;;;24.97;16.50;;;;;;;;;;5013384;28;20160;-65
2022/01/07 01:41:36;;;;;;;20.33;15.57;;;;;;;;;;4996519;28;20537;-65
2022/01/07 01:44:02;;;;;;;22.80;16.37;;;;;;;;;;5013995;28;20113;-65
2022/01/07 01:46:28;;;;;;;23.30;15.77;;;;;;;;;;5013372;28;20033;-65
2022/01/07 01:48:54;;;;;;;20.30;15.93;;;;;;;;;;5013896;28;20141;-64
2022/01/07 01:51:20;;;;;;;20.57;15.33;;;;;;;;;;5032350;28;20057;-65
2022/01/07 01:53:46;;;;;;;22.70;16.90;;;;;;;;;;5013200;28;20495;-65
2022/01/07 01:56:12;;;;;;;20.57;15.20;;;;;;;;;;5008601;28;20033;-65
2022/01/07 01:58:38;;;;;;;21.47;15.80;;;;;;;;;;5013464;28;20087;-65
2022/01/07 02:01:04;;;;;;;20.20;15.27;;;;;;;;;;5016477;28;20025;-65
2022/01/07 02:03:30;;;;;;;22.23;16.97;;;;;;;;;;5013910;28;20026;-65
2022/01/07 02:05:57;;;;;;;21.73;15.67;;;;;;;;;;5013932;28;20022;-65
2022/01/07 02:08:24;;;;;;;18.30;14.93;;;;;;;;;;5012573;28;20395;-65
2022/01/07 02:10:51;;;;;;;20.50;16.17;;;;;;;;;;5014042;28;20026;-65
2022/01/07 02:13:17;;;;;;;24.00;15.87;;;;;;;;;;5012485;28;20069;-65
2022/01/07 02:15:43;;;;;;;21.57;15.47;;;;;;;;;;5013885;28;20069;-65
2022/01/07 02:18:09;;;;;;;21.23;15.30;;;;;;;;;;5010998;28;20434;-66
2022/01/07 02:20:35;;;;;;;20.73;15.60;;;;;;;;;;5013882;28;20112;-65
2022/01/07 02:23:02;;;;;;;21.20;15.93;;;;;;;;;;5012900;28;20037;-65
2022/01/07 02:25:28;;;;;;;19.77;15.13;;;;;;;;;;5011787;28;20663;-65
2022/01/07 02:27:55;;;;;;;20.63;15.17;;;;;;;;;;5004690;28;20033;-65
2022/01/07 02:30:22;;;;;;;20.60;15.30;;;;;;;;;;5013051;28;20117;-65
2022/01/07 02:32:49;;;;;;;22.90;16.57;;;;;;;;;;5013424;28;20037;-65
2022/01/07 02:35:15;;;;;;;20.57;15.17;;;;;;;;;;5012497;28;20475;-65
2022/01/07 02:37:41;;;;;;;17.93;14.50;;;;;;;;;;5016160;28;20133;-65
2022/01/07 02:40:08;;;;;;;18.90;14.10;;;;;;;;;;5012146;28;20395;-65
2022/01/07 02:42:34;;;;;;;18.07;13.70;;;;;;;;;;5013003;28;20030;-65
2022/01/07 02:45:01;;;;;;;18.23;14.23;;;;;;;;;;5012959;28;20033;-65
2022/01/07 02:47:33;;;;;;;20.93;14.27;;;;;;;;;;5012162;28;20061;-65
2022/01/07 02:50:05;;;;;;;17.47;13.43;;;;;;;;;;5012865;28;20480;-65
2022/01/07 02:52:31;;;;;;;18.53;13.60;;;;;;;;;;5013142;28;20054;-65
2022/01/07 02:54:57;;;;;;;16.17;13.00;;;;;;;;;;5012779;28;20530;-65
2022/01/07 02:57:23;;;;;;;16.00;12.73;;;;;;;;;;5012967;28;20353;-65
2022/01/07 02:59:49;;;;;;;17.30;13.10;;;;;;;;;;5021829;28;20037;-65
2022/01/07 03:02:15;;;;;;;18.47;14.07;;;;;;;;;;5025269;28;20026;-65
2022/01/07 03:04:41;;;;;;;17.13;12.80;;;;;;;;;;5012542;28;20049;-65
2022/01/07 03:07:07;;;;;;;17.47;13.33;;;;;;;;;;5012847;28;20468;-65
2022/01/07 03:09:33;;;;;;;19.97;13.70;;;;;;;;;;5012174;28;20022;-65
2022/01/07 03:11:59;;;;;;;16.57;13.57;;;;;;;;;;5021813;28;20017;-65
2022/01/07 03:14:25;;;;;;;17.37;12.57;;;;;;;;;;5012103;28;20130;-65
2022/01/07 03:16:51;;;;;;;14.03;11.30;;;;;;;;;;5013230;28;20018;-65
2022/01/07 03:19:17;;;;;;;18.63;13.40;;;;;;;;;;5012364;28;20025;-65
2022/01/07 03:21:43;;;;;;;18.13;12.73;;;;;;;;;;5017312;28;20052;-65
2022/01/07 03:24:09;;;;;;;15.40;12.40;;;;;;;;;;5017714;28;20113;-65
2022/01/07 03:26:35;;;;;;;14.87;11.10;;;;;;;;;;5017071;28;20044;-65
2022/01/07 03:29:01;;;;;;;15.07;12.07;;;;;;;;;;5016085;28;20030;-65
2022/01/07 03:31:27;;;;;;;16.77;11.80;;;;;;;;;;5017008;28;20022;-65
2022/01/07 03:33:53;;;;;;;14.37;10.97;;;;;;;;;;5015460;28;20034;-65
2022/01/07 03:36:19;;;;;;;13.03;10.97;;;;;;;;;;5016782;28;20026;-65
2022/01/07 03:38:46;;;;;;;14.10;11.37;;;;;;;;;;5014438;28;20097;-65
2022/01/07 03:41:12;;;;;;;16.53;11.40;;;;;;;;;;5016663;28;20056;-65
2022/01/07 03:43:38;;;;;;;13.73;10.53;;;;;;;;;;5015031;28;20026;-65
2022/01/07 03:46:04;;;;;;;16.07;11.97;;;;;;;;;;5016638;28;20114;-65
2022/01/07 03:48:30;;;;;;;12.40;10.37;;;;;;;;;;5022228;28;20025;-65
2022/01/07 03:50:57;;;;;;;13.57;10.23;;;;;;;;;;5016080;28;20026;-65
2022/01/07 03:53:25;;;;;;;12.60;10.23;;;;;;;;;;5015855;28;20069;-64
2022/01/07 03:55:52;;;;;;;14.17;10.63;;;;;;;;;;5014445;28;20036;-64
2022/01/07 03:58:18;;;;;;;12.20;9.67;;;;;;;;;;5015967;28;20030;-64
2022/01/07 04:00:44;;;;;;;14.40;10.17;;;;;;;;;;5003112;28;20149;-64
2022/01/07 04:03:12;;;;;;;13.87;9.83;;;;;;;;;;5016371;28;20387;-64
2022/01/07 04:05:38;;;;;;;15.70;10.90;;;;;;;;;;5014730;28;20034;-64
2022/01/07 04:08:05;;;;;;;14.10;10.10;;;;;;;;;;4998745;28;20026;-64
2022/01/07 04:10:31;;;;;;;14.37;10.20;;;;;;;;;;5015415;28;20076;-63
2022/01/07 04:12:57;;;;;;;11.40;9.13;;;;;;;;;;5015708;28;20058;-64
2022/01/07 04:15:23;;;;;;;15.63;12.27;;;;;;;;;;5015561;28;20049;-65
2022/01/07 04:17:50;;;;;;;14.30;11.20;;;;;;;;;;5015812;28;20033;-65
2022/01/07 04:20:18;;;;;;;17.00;12.90;;;;;;;;;;5014936;28;20026;-65
2022/01/07 04:22:45;;;;;;;17.50;13.80;;;;;;;;;;5015508;28;20026;-65
2022/01/07 04:25:17;;;;;;;18.00;14.03;;;;;;;;;;5014392;28;20030;-64
2022/01/07 04:27:52;;;;;;;16.60;13.43;;;;;;;;;;5015898;28;20372;-65
2022/01/07 04:30:18;;;;;;;18.85;13.63;;;;;;;;;;5002029;28;20064;-65
2022/01/07 04:32:44;;;;;;;19.50;13.77;;;;;;;;;;5014482;28;20034;-65
2022/01/07 04:35:12;;;;;;;19.60;14.03;;;;;;;;;;4997281;28;20049;-64
2022/01/07 04:37:38;;;;;;;17.07;13.40;;;;;;;;;;5015551;28;20038;-64
2022/01/07 04:40:06;;;;;;;18.67;14.10;;;;;;;;;;5014948;28;20148;-64
2022/01/07 04:42:32;;;;;;;24.50;15.77;;;;;;;;;;5015657;28;20114;-64
2022/01/07 04:44:58;;;;;;;18.77;15.40;;;;;;;;;;5014965;28;20416;-64
2022/01/07 04:47:24;;;;;;;18.13;14.53;;;;;;;;;;4996617;28;20017;-64
2022/01/07 04:49:50;;;;;;;19.77;15.00;;;;;;;;;;4997443;28;20091;-64
2022/01/07 04:52:17;;;;;;;21.70;16.00;;;;;;;;;;5014387;28;20025;-64
2022/01/07 04:54:43;;;;;;;25.07;16.27;;;;;;;;;;5014240;28;20121;-64
2022/01/07 04:57:09;;;;;;;22.93;16.57;;;;;;;;;;5013179;28;20030;-64
2022/01/07 04:59:35;;;;;;;21.07;16.07;;;;;;;;;;5014619;28;20052;-64
2022/01/07 05:02:01;;;;;;;24.87;15.57;;;;;;;;;;5012296;28;20021;-64
2022/01/07 05:04:27;;;;;;;21.53;14.97;;;;;;;;;;4996734;28;20032;-64
2022/01/07 05:06:53;;;;;;;16.10;13.87;;;;;;;;;;5013890;28;20033;-65
2022/01/07 05:09:19;;;;;;;19.23;13.87;;;;;;;;;;5014888;28;20484;-65
2022/01/07 05:11:46;;;;;;;17.70;12.77;;;;;;;;;;5024887;28;20468;-65
2022/01/07 05:14:12;;;;;;;18.57;12.70;;;;;;;;;;5013973;28;20062;-64
2022/01/07 05:16:39;;;;;;;16.13;13.30;;;;;;;;;;5015197;28;20037;-65
2022/01/07 05:19:05;;;;;;;18.73;13.57;;;;;;;;;;5013829;28;20030;-64
2022/01/07 05:21:31;;;;;;;18.43;13.03;;;;;;;;;;5014715;28;20021;-64
2022/01/07 05:23:57;;;;;;;16.57;11.93;;;;;;;;;;5013041;28;20428;-64
2022/01/07 05:26:23;;;;;;;15.33;12.33;;;;;;;;;;5013937;28;20069;-64
2022/01/07 05:28:50;;;;;;;16.10;11.87;;;;;;;;;;5013802;28;20068;-64
2022/01/07 05:31:17;;;;;;;18.20;12.93;;;;;;;;;;5014116;28;20057;-64
2022/01/07 05:33:43;;;;;;;16.73;11.90;;;;;;;;;;5013442;28;20107;-64
2022/01/07 05:36:09;;;;;;;15.27;11.23;;;;;;;;;;4996985;28;20072;-64
2022/01/07 05:38:35;;;;;;;13.63;9.50;;;;;;;;;;5014020;28;20537;-64
2022/01/07 05:41:01;;;;;;;13.83;10.50;;;;;;;;;;5014258;28;20073;-64
2022/01/07 05:43:28;;;;;;;12.77;9.37;;;;;;;;;;5012587;28;20026;-64
2022/01/07 05:45:54;;;;;;;14.07;9.13;;;;;;;;;;5014459;28;20026;-64
2022/01/07 05:48:20;;;;;;;12.73;9.47;;;;;;;;;;5013384;28;20034;-64
2022/01/07 05:50:46;;;;;;;14.10;8.97;;;;;;;;;;5014354;28;20100;-64
2022/01/07 05:53:12;;;;;;;10.57;8.83;;;;;;;;;;5015827;28;20084;-64
2022/01/07 05:55:38;;;;;;;11.57;8.20;;;;;;;;;;5013038;28;20491;-64
2022/01/07 05:58:04;;;;;;;15.60;8.43;;;;;;;;;;5012935;28;20117;-64
2022/01/07 06:00:30;;;;;;;11.30;8.83;;;;;;;;;;5013361;28;20030;-64
2022/01/07 06:02:56;;;;;;;11.93;9.00;;;;;;;;;;5011713;28;20069;-64
2022/01/07 06:05:23;;;;;;;10.97;8.63;;;;;;;;;;5013770;28;20034;-64
2022/01/07 06:07:49;;;;;;;9.73;7.20;;;;;;;;;;5023094;28;20041;-64
2022/01/07 06:10:15;;;;;;;11.73;7.80;;;;;;;;;;5013989;28;20030;-64
2022/01/07 06:12:41;;;;;;;10.97;7.07;;;;;;;;;;4995340;28;20046;-64
2022/01/07 06:15:07;;;;;;;9.97;6.27;;;;;;;;;;5013817;28;20117;-64
2022/01/07 06:17:33;;;;;;;7.10;5.73;;;;;;;;;;5013958;28;20022;-64
2022/01/07 06:19:59;;;;;;;6.83;5.23;;;;;;;;;;5013981;28;20032;-64
2022/01/07 06:22:25;;;;;;;7.73;5.40;;;;;;;;;;5013012;28;20104;-64
2022/01/07 06:24:51;;;;;;;8.30;5.40;;;;;;;;;;5013465;28;20100;-64
2022/01/07 06:27:17;;;;;;;10.93;5.50;;;;;;;;;;5013035;28;20547;-64
2022/01/07 06:29:43;;;;;;;8.13;4.70;;;;;;;;;;5011746;28;20029;-64
2022/01/07 06:32:09;;;;;;;8.27;5.57;;;;;;;;;;5013174;28;20026;-64
2022/01/07 06:34:36;;;;;;;5.37;4.63;;;;;;;;;;5013123;28;20567;-65
2022/01/07 06:37:02;;;;;;;5.83;4.50;;;;;;;;;;5013240;28;20030;-64
2022/01/07 06:39:29;;;;;;;5.73;4.37;;;;;;;;;;5013047;28;20107;-64
2022/01/07 06:41:57;;;;;;;5.43;4.00;;;;;;;;;;5013503;28;20022;-64
2022/01/07 06:44:23;;;;;;;6.53;4.50;;;;;;;;;;5012970;28;20491;-64
2022/01/07 06:46:49;;;;;;;6.30;4.47;;;;;;;;;;5012342;28;20022;-64
2022/01/07 06:49:15;;;;;;;6.50;4.43;;;;;;;;;;5012809;28;20034;-64
2022/01/07 06:51:41;;;;;;;8.77;4.13;;;;;;;;;;5013262;28;20029;-64
2022/01/07 06:54:11;;;;;;;9.27;4.27;;;;;;;;;;5011748;28;20495;-65
2022/01/07 06:56:37;;;;;;;6.07;4.40;;;;;;;;;;5013310;28;20018;-64
2022/01/07 06:59:03;;;;;;;7.90;4.97;;;;;;;;;;5009103;28;20399;-65
2022/01/07 07:01:29;;;;;;;8.37;4.33;;;;;;;;;;5013411;28;20022;-65
2022/01/07 07:03:54;;;;;;;6.23;4.20;;;;;;;;;;5012417;28;20030;-64
2022/01/07 07:06:20;;;;;;;10.07;4.43;;;;;;;;;;5013563;28;20022;-65
2022/01/07 07:08:47;;;;;;;6.77;4.33;;;;;;;;;;5012035;28;20029;-65
2022/01/07 07:11:13;;;;;;;6.50;4.10;;;;;;;;;;5013365;28;20104;-65
2022/01/07 07:13:39;;;;;;;5.90;3.67;;;;;;;;;;5011705;28;20042;-65
2022/01/07 07:16:05;;;;;;;6.37;4.13;;;;;;;;;;5013149;28;20037;-65
2022/01/07 07:18:31;;;;;;;3.33;3.00;;;;;;;;;;5012226;28;20507;-65
2022/01/07 07:20:58;;;;;;;10.83;3.80;;;;;;;;;;5012732;28;20057;-65
2022/01/07 07:23:24;;;;;;;7.27;3.93;;;;;;;;;;5011924;28;20022;-65
2022/01/07 07:25:51;;;;;;;4.27;3.77;;;;;;;;;;5013129;28;20030;-65
2022/01/07 07:28:17;;;;;;;4.50;3.20;;;;;;;;;;5011421;28;20034;-65
2022/01/07 07:30:43;;;;;;;5.00;3.87;;;;;;;;;;5013034;28;20017;-65
2022/01/07 07:33:31;;;;;;;4.97;3.57;;;;;;;;;;5011866;28;20034;-65
2022/01/07 07:38:42;;;;;;;7.53;3.40;;;;;;;;;;5011849;28;20064;-65
2022/01/07 07:41:10;;;;;;;5.07;3.07;;;;;;;;;;5020266;28;20041;-65
2022/01/07 07:43:36;;;;;;;4.57;3.17;;;;;;;;;;5011857;28;20029;-65
2022/01/07 07:46:03;;;;;;;4.23;3.33;;;;;;;;;;5012991;28;20026;-65
2022/01/07 07:48:30;;;;;;;4.83;3.67;;;;;;;;;;4994127;28;20462;-65
2022/01/07 07:50:56;;;;;;;6.37;3.47;;;;;;;;;;5012401;28;20033;-65
2022/01/07 07:53:22;;;;;;;5.30;3.10;;;;;;;;;;4989255;28;20399;-65
2022/01/07 07:55:53;;;;;;;5.80;3.30;;;;;;;;;;4996183;28;20037;-65
2022/01/07 07:58:19;;;;;;;7.67;3.77;;;;;;;;;;5009043;28;20041;-65
2022/01/07 08:00:46;;;;;;;5.43;3.60;;;;;;;;;;5012855;28;20525;-65
2022/01/07 08:03:12;;;;;;;4.83;3.57;;;;;;;;;;5011936;28;20064;-65
2022/01/07 08:05:38;;;;;;;12.60;5.43;;;;;;;;;;4998171;28;20046;-65
2022/01/07 08:08:04;;;;;;;6.63;5.00;;;;;;;;;;5010994;28;20051;-65
2022/01/07 08:10:31;;;;;;;8.13;5.00;;;;;;;;;;5016190;28;20041;-65
2022/01/07 08:13:26;;;;;;;7.40;4.70;;;;;;;;;;5015234;28;20152;-64
2022/01/07 08:15:58;;;;;;;7.50;5.20;;;;;;;;;;5014247;28;20042;-64
2022/01/07 08:18:24;;;;;;;5.77;3.93;;;;;;;;;;5016874;28;20029;-64
2022/01/07 08:20:51;;;;;;;9.70;4.40;;;;;;;;;;5034761;28;20029;-65
2022/01/07 08:23:18;;;;;;;6.93;4.87;;;;;;;;;;5021901;28;20486;-65
2022/01/07 08:25:44;;;;;;;8.97;5.27;;;;;;;;;;4995444;28;20032;-64
2022/01/07 08:28:12;;;;;;;7.70;5.40;;;;;;;;;;5015098;28;20384;-65
2022/01/07 08:30:59;;;;;;;9.80;5.00;;;;;;;;;;5016065;28;20026;-65
2022/01/07 08:36:10;;;;;;;7.25;4.75;;;;;;;;;;5016211;28;20057;-65
2022/01/07 08:38:36;;;;;;;8.63;5.50;;;;;;;;;;5014370;28;20376;-65
2022/01/07 08:41:02;;;;;;;8.43;5.20;;;;;;;;;;5012564;28;20060;-65
2022/01/07 08:43:28;;;;;;;7.47;5.17;;;;;;;;;;5012433;28;20022;-65
2022/01/07 08:45:54;;;;;;;6.33;4.47;;;;;;;;;;5009123;28;20499;-65
2022/01/07 08:48:20;;;;;;;8.37;5.33;;;;;;;;;;5013982;28;20032;-65
2022/01/07 08:50:46;;;;;;;8.60;5.23;;;;;;;;;;5012660;28;20041;-65
2022/01/07 08:53:13;;;;;;;6.37;4.83;;;;;;;;;;5013006;28;20152;-65
2022/01/07 08:55:39;;;;;;;11.77;5.37;;;;;;;;;;5010423;28;20064;-65
2022/01/07 08:58:06;;;;;;;8.47;4.87;;;;;;;;;;5010392;28;20037;-65
2022/01/07 09:00:32;;;;;;;12.43;5.63;;;;;;;;;;5011353;28;20041;-65
2022/01/07 09:02:59;;;;;;;10.13;5.27;;;;;;;;;;5009089;28;20029;-65
2022/01/07 09:05:25;;;;;;;7.63;5.40;;;;;;;;;;5010502;28;20036;-65
2022/01/07 09:07:51;;;;;;;8.63;5.33;;;;;;;;;;5011619;28;20026;-65
2022/01/07 09:10:17;;;;;;;10.30;6.93;;;;;;;;;;5010019;28;20526;-65
2022/01/07 09:12:43;;;;;;;8.80;6.00;;;;;;;;;;5012233;28;20121;-65
2022/01/07 09:15:09;;;;;;;8.40;6.60;;;;;;;;;;5009212;28;20415;-65
2022/01/07 09:17:35;;;;;;;10.97;6.57;;;;;;;;;;5010117;28;20530;-65
2022/01/07 09:20:01;;;;;;;7.50;5.83;;;;;;;;;;5011595;28;20080;-64
2022/01/07 09:22:28;;;;;;;9.23;6.43;;;;;;;;;;5010131;28;20026;-65
2022/01/07 09:24:54;;;;;;;8.93;7.00;;;;;;;;;;5010196;28;20040;-64
2022/01/07 09:27:20;;;;;;;15.63;8.57;;;;;;;;;;4992947;28;20422;-65
2022/01/07 09:29:46;;;;;;;9.90;7.87;;;;;;;;;;5009795;28;20041;-65
2022/01/07 09:32:12;;;;;;;10.23;7.53;;;;;;;;;;5011327;28;20101;-65
2022/01/07 09:34:38;;;;;;;10.07;7.90;;;;;;;;;;5009471;28;20042;-65
2022/01/07 09:37:05;;;;;;;12.23;9.40;;;;;;;;;;5010994;28;20033;-64
2022/01/07 09:39:32;;;;;;;12.93;8.43;;;;;;;;;;5009921;28;20033;-65
2022/01/07 09:41:59;;;;;;;14.13;9.70;;;;;;;;;;5007818;28;20532;-64
2022/01/07 09:44:25;;;;;;;10.47;7.60;;;;;;;;;;5011367;28;20475;-65
2022/01/07 09:46:52;;;;;;;12.73;8.23;;;;;;;;;;5009927;28;20027;-64
2022/01/07 09:49:18;;;;;;;7.90;6.77;;;;;;;;;;5009273;28;20048;-65
2022/01/07 09:51:44;;;;;;;11.07;9.00;;;;;;;;;;5012224;28;20071;-64
2022/01/07 09:54:11;;;;;;;9.67;7.13;;;;;;;;;;5005329;28;20127;-64
2022/01/07 09:56:38;;;;;;;9.37;6.37;;;;;;;;;;5011230;28;20030;-64
2022/01/07 09:59:06;;;;;;;8.43;6.43;;;;;;;;;;5008866;28;20113;-64
2022/01/07 10:01:51;;;;;;;11.33;6.87;;;;;;;;;;5009736;28;20113;-65
2022/01/07 10:04:34;;;;;;;9.68;6.97;;;;;;;;;;5009583;28;20475;-64
2022/01/07 10:07:12;;;;;;;9.33;6.67;;;;;;;;;;5007553;28;20029;-64
2022/01/07 10:09:39;;;;;;;10.93;6.73;;;;;;;;;;5009937;28;20480;-64
2022/01/07 10:12:06;;;;;;;9.23;6.40;;;;;;;;;;5008306;28;20038;-64
2022/01/07 10:14:32;;;;;;;7.90;6.27;;;;;;;;;;5010306;28;20056;-64
2022/01/07 10:17:00;;;;;;;8.47;6.57;;;;;;;;;;5009621;28;20105;-64
2022/01/07 10:19:35;;;;;;;9.77;5.90;;;;;;;;;;5008387;28;20053;-65
2022/01/07 10:22:06;;;;;;;7.63;5.97;;;;;;;;;;5009663;28;20033;-65
2022/01/07 10:24:32;;;;;;;7.33;6.27;;;;;;;;;;5008599;28;20030;-65
2022/01/07 10:27:10;;;;;;;6.53;5.73;;;;;;;;;;5008638;28;20089;-65
2022/01/07 10:29:41;;;;;;;8.47;5.80;;;;;;;;;;5023446;28;20045;-64
2022/01/07 10:32:19;;;;;;;12.80;6.30;;;;;;;;;;5020089;28;20103;-65
2022/01/07 10:35:04;;;;;;;7.73;5.77;;;;;;;;;;5012751;28;20066;-65
2022/01/07 10:37:30;;;;;;;6.73;5.33;;;;;;;;;;5011846;28;20380;-65
2022/01/07 10:39:56;;;;;;;8.13;5.67;;;;;;;;;;5013638;28;20030;-65
2022/01/07 10:42:28;;;;;;;8.27;5.33;;;;;;;;;;5012283;28;20030;-65
2022/01/07 10:44:58;;;;;;;9.00;6.10;;;;;;;;;;5013447;28;20022;-65
2022/01/07 10:47:25;;;;;;;9.17;5.97;;;;;;;;;;5010880;28;20072;-65
2022/01/07 10:49:51;;;;;;;5.50;4.73;;;;;;;;;;5013510;28;20044;-65
2022/01/07 10:52:23;;;;;;;6.70;4.90;;;;;;;;;;5010564;28;20034;-65
2022/01/07 10:55:13;;;;;;;6.77;5.00;;;;;;;;;;5012254;28;20123;-65
2022/01/07 10:57:46;;;;;;;7.00;5.17;;;;;;;;;;5007621;28;20415;-65
2022/01/07 11:00:13;;;;;;;8.07;5.43;;;;;;;;;;5014024;28;20045;-65
2022/01/07 11:02:40;;;;;;;6.97;5.27;;;;;;;;;;5011796;28;20022;-65
2022/01/07 11:05:07;;;;;;;7.13;5.50;;;;;;;;;;5013055;28;20069;-66
2022/01/07 11:07:33;;;;;;;7.07;4.87;;;;;;;;;;5012907;28;20380;-66
2022/01/07 11:10:00;;;;;;;7.17;5.60;;;;;;;;;;5014391;28;20029;-66
2022/01/07 11:12:26;;;;;;;6.20;4.37;;;;;;;;;;5010166;28;20022;-66
2022/01/07 11:14:52;;;;;;;5.43;4.40;;;;;;;;;;5012703;28;20046;-66
2022/01/07 11:17:22;;;;;;;5.43;4.60;;;;;;;;;;5012012;28;20081;-65
2022/01/07 11:19:59;;;;;;;7.13;5.07;;;;;;;;;;5011608;28;20026;-64
2022/01/07 11:22:26;;;;;;;8.57;5.00;;;;;;;;;;5011631;28;20026;-64
2022/01/07 11:25:13;;;;;;;8.97;4.67;;;;;;;;;;5025693;28;20033;-64
2022/01/07 11:27:47;;;;;;;5.97;3.80;;;;;;;;;;5012442;28;20026;-64
2022/01/07 11:30:15;;;;;;;7.65;5.22;;;;;;;;;;5013031;28;20033;-65
2022/01/07 11:32:48;;;;;;;7.10;6.27;;;;;;;;;;4981524;28;20121;-64
2022/01/07 11:35:20;;;;;;;8.20;5.00;;;;;;;;;;5001601;28;20038;-64
2022/01/07 11:37:56;;;;;;;7.80;5.40;;;;;;;;;;5012101;28;20029;-64
2022/01/07 11:40:31;;;;;;;6.97;4.63;;;;;;;;;;5013269;28;20029;-65
2022/01/07 11:42:58;;;;;;;9.20;5.80;;;;;;;;;;5015092;28;20029;-65
2022/01/07 11:45:28;;;;;;;13.23;6.13;;;;;;;;;;5016632;28;20025;-64
2022/01/07 11:47:55;;;;;;;7.43;5.40;;;;;;;;;;5015158;28;20049;-65
2022/01/07 11:50:22;;;;;;;5.93;4.53;;;;;;;;;;5016682;28;20037;-65
2022/01/07 11:52:56;;;;;;;6.77;5.23;;;;;;;;;;5014491;28;20026;-65
2022/01/07 11:55:28;;;;;;;6.17;4.97;;;;;;;;;;5016533;28;20506;-65
2022/01/07 11:57:55;;;;;;;6.23;4.60;;;;;;;;;;5004985;28;20037;-64
2022/01/07 12:00:40;;;;;;;9.07;4.57;;;;;;;;;;5016413;28;20490;-64
2022/01/07 12:03:06;;;;;;;7.65;5.50;;;;;;;;;;5013410;28;20480;-65
2022/01/07 12:05:32;;;;;;;5.67;4.97;;;;;;;;;;5016432;28;20037;-65
2022/01/07 12:07:58;;;;;;;7.47;5.13;;;;;;;;;;4986265;28;20030;-64
2022/01/07 12:10:25;;;;;;;6.17;4.60;;;;;;;;;;5016279;28;20541;-64
2022/01/07 12:12:58;;;;;;;6.77;4.57;;;;;;;;;;4991039;28;20100;-65
2022/01/07 12:15:24;;;;;;;6.43;4.47;;;;;;;;;;5016495;28;20080;-65
2022/01/07 12:17:50;;;;;;;8.07;5.23;;;;;;;;;;5015050;28;20037;-65
2022/01/07 12:20:28;;;;;;;6.27;4.70;;;;;;;;;;5015452;28;20108;-65
2022/01/07 12:22:55;;;;;;;5.60;5.03;;;;;;;;;;5015098;28;20105;-65
2022/01/07 12:25:22;;;;;;;6.30;4.80;;;;;;;;;;5021383;28;20033;-65
2022/01/07 12:27:48;;;;;;;7.30;5.70;;;;;;;;;;5022028;28;20392;-65
2022/01/07 12:30:14;;;;;;;6.27;4.73;;;;;;;;;;5015885;28;20041;-64
2022/01/07 12:32:40;;;;;;;6.50;4.60;;;;;;;;;;5014776;28;20026;-65
2022/01/07 12:35:07;;;;;;;10.40;5.63;;;;;;;;;;5015384;28;20423;-65
2022/01/07 12:37:34;;;;;;;7.37;5.10;;;;;;;;;;5014678;28;20033;-65
2022/01/07 12:40:01;;;;;;;6.50;4.80;;;;;;;;;;4997237;28;20033;-65
2022/01/07 12:42:28;;;;;;;6.90;4.47;;;;;;;;;;5014279;28;20401;-64
2022/01/07 12:44:57;;;;;;;6.70;5.10;;;;;;;;;;5014906;28;20125;-64
2022/01/07 12:47:27;;;;;;;7.17;5.13;;;;;;;;;;5014293;28;20033;-65
2022/01/07 12:49:55;;;;;;;7.70;5.13;;;;;;;;;;5011883;28;20377;-64
2022/01/07 12:52:31;;;;;;;9.20;5.63;;;;;;;;;;4997003;28;20034;-64
2022/01/07 12:54:57;;;;;;;9.90;6.60;;;;;;;;;;5015784;28;20044;-64
2022/01/07 12:57:27;;;;;;;6.73;5.60;;;;;;;;;;5000313;28;20029;-64
2022/01/07 13:00:04;;;;;;;8.67;5.70;;;;;;;;;;5014854;28;20088;-65
2022/01/07 13:02:31;;;;;;;8.47;5.77;;;;;;;;;;5014872;28;20026;-65
2022/01/07 13:05:18;;;;;;;7.10;6.20;;;;;;;;;;5014606;28;20064;-65
2022/01/07 13:07:44;;;;;;;8.33;6.17;;;;;;;;;;5014718;28;20038;-64
2022/01/07 13:10:10;;;;;;;9.87;6.80;;;;;;;;;;5013973;28;20084;-64
2022/01/07 13:12:37;;;;;;;11.07;7.53;;;;;;;;;;5014032;28;20025;-63
2022/01/07 13:15:04;;;;;;;10.93;6.87;;;;;;;;;;5016938;28;20128;-65
2022/01/07 13:17:30;;;;;;;9.30;6.57;;;;;;;;;;5017159;28;20076;-65
2022/01/07 13:19:57;;;;;;;7.10;6.30;;;;;;;;;;4996653;28;20045;-65
2022/01/07 13:22:24;;;;;;;11.90;7.17;;;;;;;;;;5013277;28;20045;-65
2022/01/07 13:24:50;;;;;;;8.10;6.83;;;;;;;;;;5013989;28;20036;-65
2022/01/07 13:27:16;;;;;;;11.53;7.17;;;;;;;;;;5019658;28;20131;-65
2022/01/07 13:29:49;;;;;;;9.60;6.43;;;;;;;;;;5023811;28;20535;-65
2022/01/07 13:32:22;;;;;;;7.07;5.47;;;;;;;;;;5014701;28;20030;-65
2022/01/07 13:34:49;;;;;;;8.17;5.80;;;;;;;;;;4995674;28;20128;-66
2022/01/07 13:37:16;;;;;;;5.97;5.40;;;;;;;;;;5013126;28;20387;-65
2022/01/07 13:39:43;;;;;;;8.93;6.47;;;;;;;;;;5019558;28;20030;-65
2022/01/07 13:42:10;;;;;;;6.97;5.90;;;;;;;;;;5015837;28;20061;-65
2022/01/07 13:44:50;;;;;;;6.17;5.37;;;;;;;;;;5013741;28;20030;-65
2022/01/07 13:47:20;;;;;;;7.50;5.53;;;;;;;;;;5014190;28;20049;-65
2022/01/07 13:49:46;;;;;;;5.83;5.20;;;;;;;;;;5013489;28;20499;-65
2022/01/07 13:52:12;;;;;;;7.23;5.03;;;;;;;;;;5022989;28;20022;-65
2022/01/07 13:54:39;;;;;;;7.90;5.10;;;;;;;;;;5014294;28;20080;-64
2022/01/07 13:57:08;;;;;;;6.37;4.87;;;;;;;;;;5013735;28;20484;-65
2022/01/07 13:59:43;;;;;;;7.93;5.37;;;;;;;;;;5013745;28;20048;-65
2022/01/07 14:02:09;;;;;;;7.90;5.77;;;;;;;;;;5014097;28;20034;-65
2022/01/07 14:04:42;;;;;;;11.13;6.67;;;;;;;;;;5012601;28;20030;-65
2022/01/07 14:07:24;;;;;;;8.97;6.30;;;;;;;;;;5012265;28;20038;-65
2022/01/07 14:10:08;;;;;;;7.17;5.33;;;;;;;;;;5005312;28;20101;-65
2022/01/07 14:12:35;;;;;;;6.90;5.40;;;;;;;;;;5013302;28;20026;-65
2022/01/07 14:15:04;;;;;;;6.53;5.27;;;;;;;;;;5013102;28;20038;-65
2022/01/07 14:17:30;;;;;;;7.50;5.13;;;;;;;;;;5013069;28;20472;-66
2022/01/07 14:19:57;;;;;;;7.33;5.73;;;;;;;;;;5010510;28;20041;-65
2022/01/07 14:22:23;;;;;;;8.07;6.30;;;;;;;;;;5013486;28;20052;-65
2022/01/07 14:24:49;;;;;;;11.40;7.73;;;;;;;;;;5013345;28;20072;-66
2022/01/07 14:27:33;;;;;;;8.03;6.90;;;;;;;;;;5011433;28;20021;-65
2022/01/07 14:29:59;;;;;;;8.73;6.20;;;;;;;;;;4993752;28;20034;-65
2022/01/07 14:32:25;;;;;;;9.80;7.27;;;;;;;;;;5013032;28;20111;-65
2022/01/07 14:34:56;;;;;;;8.73;6.60;;;;;;;;;;5012448;28;20037;-65
2022/01/07 14:37:22;;;;;;;11.10;7.77;;;;;;;;;;4994017;28;20388;-65
2022/01/07 14:39:48;;;;;;;10.13;7.83;;;;;;;;;;5012978;28;20480;-65